Time;durP1;ratioP1;P1;durP2;ratioP2;P2;SDS_P1;SDS_P2;PMS_P1;PMS_P2;Temp;Humidity;BMP_temperature;BMP_pressure;BME280_temperature;BME280_humidity;BME280_pressure;Samples;Min_cycle;Max_cycle;Signal;HPM_P1;HPM_P2
2022/05/21 00:01:35;;;;;;;6.63;1.92;;;14.20;99.90;;;;;;5018884;28;20570;-74
2022/05/21 00:04:01;;;;;;;7.03;2.03;;;14.20;99.90;;;;;;5016726;28;20026;-75
2022/05/21 00:06:27;;;;;;;6.53;1.75;;;14.20;99.90;;;;;;5016766;28;20033;-75
2022/05/21 00:08:52;;;;;;;7.80;1.88;;;14.20;99.90;;;;;;5017378;28;20034;-74
2022/05/21 00:11:18;;;;;;;5.43;2.03;;;14.20;99.90;;;;;;5017730;28;20030;-74
2022/05/21 00:13:45;;;;;;;7.18;1.90;;;14.10;99.90;;;;;;5014009;28;20065;-75
2022/05/21 00:16:11;;;;;;;5.10;1.83;;;14.00;99.90;;;;;;5016814;28;20034;-74
2022/05/21 00:18:37;;;;;;;7.20;2.10;;;14.00;99.90;;;;;;5032090;28;20041;-75
2022/05/21 00:21:03;;;;;;;5.82;1.90;;;14.00;99.90;;;;;;5014344;28;20029;-75
2022/05/21 00:23:31;;;;;;;6.03;2.05;;;14.00;99.90;;;;;;5017694;28;20417;-75
2022/05/21 00:25:59;;;;;;;9.25;2.17;;;14.00;99.90;;;;;;5015104;28;20060;-75
2022/05/21 00:28:26;;;;;;;9.18;2.50;;;14.10;99.90;;;;;;5015516;28;20053;-75
2022/05/21 00:30:52;;;;;;;6.63;2.58;;;14.10;99.90;;;;;;5003423;28;20034;-75
2022/05/21 00:33:18;;;;;;;4.22;1.88;;;14.10;99.90;;;;;;5015482;28;20550;-75
2022/05/21 00:35:44;;;;;;;6.75;2.20;;;13.90;99.90;;;;;;5017472;28;20412;-75
2022/05/21 00:38:10;;;;;;;6.68;2.55;;;13.80;99.90;;;;;;5015896;28;20041;-74
2022/05/21 00:40:37;;;;;;;5.43;2.42;;;13.80;99.90;;;;;;5014111;28;20416;-75
2022/05/21 00:43:03;;;;;;;5.82;2.45;;;13.70;99.90;;;;;;5017753;28;20026;-75
2022/05/21 00:45:30;;;;;;;7.22;2.35;;;13.80;99.90;;;;;;5027169;28;20509;-74
2022/05/21 00:47:56;;;;;;;7.88;2.90;;;13.90;99.90;;;;;;4998524;28;20037;-75
2022/05/21 00:50:26;;;;;;;4.60;2.38;;;13.80;99.90;;;;;;4995290;28;20093;-74
2022/05/21 00:52:53;;;;;;;5.75;2.15;;;13.70;99.90;;;;;;5015033;28;20056;-74
2022/05/21 00:55:29;;;;;;;5.90;2.38;;;13.70;99.90;;;;;;5001880;28;20037;-75
2022/05/21 01:00:53;;;;;;;7.28;3.10;;;13.70;99.90;;;;;;5019911;28;20420;-73
2022/05/21 01:03:19;;;;;;;6.88;2.42;;;13.60;99.90;;;;;;5014894;28;20074;-75
2022/05/21 01:05:47;;;;;;;6.00;2.22;;;13.60;99.90;;;;;;5013802;28;20030;-75
2022/05/21 01:08:14;;;;;;;7.45;2.58;;;13.60;99.90;;;;;;5011540;28;20060;-73
2022/05/21 01:10:44;;;;;;;5.15;2.58;;;13.60;99.90;;;;;;5015883;28;20176;-74
2022/05/21 01:13:15;;;;;;;6.28;2.35;;;13.50;99.90;;;;;;5009402;28;20041;-75
2022/05/21 01:15:44;;;;;;;5.65;2.42;;;13.50;99.90;;;;;;5016101;28;20112;-75
2022/05/21 01:18:10;;;;;;;10.45;2.88;;;13.40;99.90;;;;;;5014771;28;20026;-74
2022/05/21 01:20:53;;;;;;;6.43;3.13;;;13.40;99.90;;;;;;5013431;28;20025;-74
2022/05/21 01:23:20;;;;;;;6.68;2.63;;;13.40;99.90;;;;;;5016269;28;20024;-73
2022/05/21 01:25:47;;;;;;;6.20;3.08;;;13.40;99.90;;;;;;5017868;28;20441;-74
2022/05/21 01:28:19;;;;;;;9.13;2.90;;;13.40;99.90;;;;;;5016155;28;20025;-75
2022/05/21 01:30:53;;;;;;;7.25;3.22;;;13.30;99.90;;;;;;5013884;28;20048;-75
2022/05/21 01:33:22;;;;;;;6.65;2.70;;;13.30;99.90;;;;;;4998467;28;20405;-75
2022/05/21 01:35:48;;;;;;;7.03;2.72;;;13.30;99.90;;;;;;5014962;28;20053;-75
2022/05/21 01:38:17;;;;;;;8.60;3.10;;;13.20;99.90;;;;;;5013317;28;20065;-74
2022/05/21 01:40:43;;;;;;;9.63;2.92;;;13.20;99.90;;;;;;5019909;28;20030;-75
2022/05/21 01:45:53;;;;;;;6.65;2.80;;;13.20;99.90;;;;;;5015206;28;20026;-74
2022/05/21 01:48:21;;;;;;;5.95;2.67;;;13.20;99.90;;;;;;5015021;28;20421;-74
2022/05/21 01:50:50;;;;;;;4.57;2.63;;;13.20;99.90;;;;;;5018854;28;20554;-74
2022/05/21 01:53:16;;;;;;;6.75;2.65;;;13.20;99.90;;;;;;5017048;28;20034;-74
2022/05/21 01:55:42;;;;;;;5.05;3.08;;;13.20;99.90;;;;;;5020011;28;20064;-74
2022/05/21 01:58:08;;;;;;;5.82;2.85;;;13.20;99.90;;;;;;4999167;28;20536;-75
2022/05/21 02:00:34;;;;;;;6.95;3.55;;;13.20;99.90;;;;;;5017221;28;20025;-74
2022/05/21 02:03:00;;;;;;;7.45;3.05;;;13.30;99.90;;;;;;5017442;28;20540;-74
2022/05/21 02:05:26;;;;;;;7.80;3.13;;;13.30;99.90;;;;;;5014650;28;20045;-74
2022/05/21 02:07:51;;;;;;;5.38;3.10;;;13.30;99.90;;;;;;5012692;28;20028;-75
2022/05/21 02:10:17;;;;;;;7.20;3.58;;;13.30;99.90;;;;;;5015893;28;20045;-74
2022/05/21 02:12:43;;;;;;;7.45;4.35;;;13.40;99.90;;;;;;5017938;28;20052;-74
2022/05/21 02:15:09;;;;;;;6.63;4.25;;;13.50;99.90;;;;;;5004799;28;20041;-75
2022/05/21 02:17:35;;;;;;;6.38;3.47;;;13.60;99.90;;;;;;4982183;28;20498;-74
2022/05/21 02:20:00;;;;;;;10.30;4.15;;;13.50;99.90;;;;;;5021885;28;20040;-74
2022/05/21 02:22:27;;;;;;;6.90;3.78;;;13.60;99.90;;;;;;4999685;28;20033;-75
2022/05/21 02:24:53;;;;;;;9.23;3.63;;;13.60;99.90;;;;;;5012841;28;20432;-75
2022/05/21 02:27:19;;;;;;;5.75;3.25;;;13.60;99.90;;;;;;4997657;28;20029;-74
2022/05/21 02:29:44;;;;;;;9.07;3.00;;;13.60;99.90;;;;;;5000161;28;20505;-75
2022/05/21 02:32:12;;;;;;;7.05;3.28;;;13.60;99.90;;;;;;4982276;28;20029;-75
2022/05/21 02:34:39;;;;;;;5.15;2.38;;;13.60;99.90;;;;;;4994890;28;20157;-74
2022/05/21 02:39:50;;;;;;;6.57;2.90;;;13.60;99.90;;;;;;5015822;28;20500;-75
2022/05/21 02:45:03;;;;;;;6.55;2.40;;;13.60;99.90;;;;;;5014758;28;20030;-74
2022/05/21 02:47:30;;;;;;;5.47;2.88;;;13.60;99.90;;;;;;4980841;28;20525;-74
2022/05/21 02:49:56;;;;;;;3.80;3.03;;;13.50;99.90;;;;;;5009084;28;20052;-74
2022/05/21 02:52:22;;;;;;;6.75;3.35;;;13.50;99.90;;;;;;5015899;28;20060;-74
2022/05/21 02:54:48;;;;;;;4.43;2.75;;;13.50;99.90;;;;;;4997851;28;20030;-74
2022/05/21 02:57:13;;;;;;;6.97;3.10;;;13.60;99.90;;;;;;4983947;28;20048;-75
2022/05/21 02:59:39;;;;;;;6.85;3.08;;;13.60;99.90;;;;;;4996203;28;20398;-74
2022/05/21 03:02:06;;;;;;;6.55;3.30;;;13.60;99.90;;;;;;4998331;28;20026;-75
2022/05/21 03:04:32;;;;;;;7.53;3.60;;;13.60;99.90;;;;;;4992906;28;20897;-74
2022/05/21 03:06:57;;;;;;;4.53;2.92;;;13.60;99.90;;;;;;4997361;28;20066;-75
2022/05/21 03:12:09;;;;;;;6.18;3.03;;;13.50;99.90;;;;;;5015151;28;20033;-75
2022/05/21 03:14:34;;;;;;;4.80;2.88;;;13.50;99.90;;;;;;4995255;28;20030;-75
2022/05/21 03:17:00;;;;;;;7.97;3.13;;;13.40;99.90;;;;;;4998105;28;20029;-75
2022/05/21 03:19:28;;;;;;;6.43;2.63;;;13.50;99.90;;;;;;4998683;28;20413;-74
2022/05/21 03:21:53;;;;;;;7.47;2.80;;;13.50;99.90;;;;;;5017275;28;20025;-75
2022/05/21 03:24:19;;;;;;;5.07;2.78;;;13.50;99.90;;;;;;4998609;28;20021;-75
2022/05/21 03:26:48;;;;;;;2.97;2.40;;;13.50;99.90;;;;;;5010876;28;20045;-74
2022/05/21 03:29:14;;;;;;;4.38;2.60;;;13.50;99.90;;;;;;4993254;28;20052;-75
2022/05/21 03:31:40;;;;;;;6.10;2.55;;;13.50;99.90;;;;;;4999519;28;20042;-75
2022/05/21 03:34:06;;;;;;;6.10;2.50;;;13.60;99.90;;;;;;4997464;28;20136;-75
2022/05/21 03:36:32;;;;;;;4.85;2.90;;;13.50;99.90;;;;;;5014035;28;20912;-75
2022/05/21 03:38:58;;;;;;;3.97;2.83;;;13.50;99.90;;;;;;5015402;28;20041;-75
2022/05/21 03:41:26;;;;;;;4.88;2.65;;;13.40;99.90;;;;;;4995897;28;20038;-75
2022/05/21 03:43:52;;;;;;;5.57;2.70;;;13.50;99.90;;;;;;5018631;28;20080;-75
2022/05/21 03:46:19;;;;;;;3.17;2.28;;;13.50;99.90;;;;;;4997846;28;20022;-75
2022/05/21 03:48:45;;;;;;;5.40;2.75;;;13.50;99.90;;;;;;4999033;28;20049;-75
2022/05/21 03:51:11;;;;;;;6.07;2.83;;;13.50;99.90;;;;;;5016662;28;20030;-75
2022/05/21 03:53:37;;;;;;;3.10;2.55;;;13.50;99.90;;;;;;5016493;28;20104;-75
2022/05/21 03:56:04;;;;;;;4.47;2.22;;;13.50;99.90;;;;;;4999015;28;20252;-77
2022/05/21 03:58:31;;;;;;;5.78;2.78;;;13.50;99.90;;;;;;4984873;28;20108;-75
2022/05/21 04:00:57;;;;;;;6.68;2.90;;;13.50;99.90;;;;;;4998327;28;20037;-75
2022/05/21 04:03:24;;;;;;;6.20;2.75;;;13.60;99.90;;;;;;5018405;28;20044;-76
2022/05/21 04:05:53;;;;;;;6.18;2.78;;;13.60;99.90;;;;;;4998399;28;20018;-76
2022/05/21 04:08:18;;;;;;;5.80;2.92;;;13.60;99.90;;;;;;5000823;28;20036;-76
2022/05/21 04:10:45;;;;;;;5.10;2.60;;;13.60;99.90;;;;;;5001153;28;20029;-75
2022/05/21 04:13:11;;;;;;;5.78;2.97;;;13.60;99.90;;;;;;5012117;28;20046;-76
2022/05/21 04:15:37;;;;;;;7.35;4.03;;;13.50;99.90;;;;;;5014337;28;20040;-76
2022/05/21 04:18:03;;;;;;;6.25;3.10;;;13.50;99.90;;;;;;5015424;28;20053;-75
2022/05/21 04:20:28;;;;;;;6.45;3.40;;;13.50;99.90;;;;;;5010782;28;20520;-75
2022/05/21 04:22:54;;;;;;;5.53;3.92;;;13.50;99.90;;;;;;5021976;28;20492;-76
2022/05/21 04:25:20;;;;;;;8.80;4.00;;;13.50;99.90;;;;;;5016454;28;20109;-76
2022/05/21 04:27:46;;;;;;;6.88;4.00;;;13.50;99.90;;;;;;5004314;28;20044;-76
2022/05/21 04:30:25;;;;;;;5.00;3.20;;;13.50;99.90;;;;;;5019051;28;20157;-75
2022/05/21 04:32:51;;;;;;;6.53;4.00;;;13.50;99.90;;;;;;5019079;28;20021;-76
2022/05/21 04:35:18;;;;;;;10.88;4.90;;;13.60;99.90;;;;;;5017870;28;20072;-75
2022/05/21 04:37:44;;;;;;;8.38;4.53;;;13.60;99.90;;;;;;5004377;28;20120;-76
2022/05/21 04:40:13;;;;;;;9.45;5.28;;;13.60;99.90;;;;;;5002579;28;20129;-75
2022/05/21 04:42:39;;;;;;;8.00;5.18;;;13.70;99.90;;;;;;5021247;28;20036;-75
2022/05/21 04:45:05;;;;;;;9.82;5.78;;;13.70;99.90;;;;;;5003335;28;20033;-75
2022/05/21 04:47:31;;;;;;;15.60;6.82;;;13.70;99.90;;;;;;5000955;28;20046;-74
2022/05/21 04:49:57;;;;;;;11.32;7.18;;;13.70;99.90;;;;;;5018839;28;20025;-76
2022/05/21 04:52:23;;;;;;;11.98;7.75;;;13.60;99.90;;;;;;5017110;28;20025;-75
2022/05/21 04:54:48;;;;;;;9.50;7.57;;;13.60;99.90;;;;;;5002275;28;20448;-75
2022/05/21 04:57:14;;;;;;;12.98;8.45;;;13.60;99.90;;;;;;5020431;28;20602;-74
2022/05/21 04:59:39;;;;;;;14.93;9.25;;;13.70;99.90;;;;;;5014557;28;20030;-74
2022/05/21 05:02:05;;;;;;;15.65;10.45;;;13.70;99.90;;;;;;5000398;28;20025;-75
2022/05/21 05:04:32;;;;;;;14.05;10.40;;;13.60;99.90;;;;;;4998540;28;20033;-75
2022/05/21 05:06:57;;;;;;;15.90;10.70;;;13.60;99.90;;;;;;5017991;28;20392;-74
2022/05/21 05:09:24;;;;;;;14.68;11.38;;;13.70;99.90;;;;;;5016702;28;20029;-76
2022/05/21 05:11:53;;;;;;;18.95;13.52;;;13.70;99.90;;;;;;5015690;28;20033;-75
2022/05/21 05:14:19;;;;;;;15.27;12.00;;;13.70;99.90;;;;;;4999522;28;20037;-75
2022/05/21 05:16:45;;;;;;;20.60;12.18;;;13.70;99.90;;;;;;5013211;28;20227;-75
2022/05/21 05:19:11;;;;;;;15.18;11.88;;;13.70;99.90;;;;;;5014103;28;20510;-75
2022/05/21 05:21:37;;;;;;;20.02;11.85;;;13.70;99.90;;;;;;5020195;28;20030;-75
2022/05/21 05:24:03;;;;;;;14.52;12.18;;;13.70;99.90;;;;;;5016213;28;20486;-74
2022/05/21 05:26:28;;;;;;;14.18;11.40;;;13.80;99.90;;;;;;5021377;28;20021;-75
2022/05/21 05:28:54;;;;;;;15.52;12.27;;;13.80;99.90;;;;;;5017626;28;20052;-74
2022/05/21 05:31:20;;;;;;;19.65;13.38;;;13.70;99.90;;;;;;5019112;28;20513;-75
2022/05/21 05:33:45;;;;;;;19.95;12.05;;;13.80;99.90;;;;;;5023045;28;20350;-75
2022/05/21 05:36:11;;;;;;;20.30;13.65;;;13.80;99.90;;;;;;5009992;28;20551;-75
2022/05/21 05:38:46;;;;;;;18.70;12.40;;;13.70;99.90;;;;;;5013430;28;20513;-76
2022/05/21 05:41:12;;;;;;;21.38;13.90;;;13.80;99.90;;;;;;5004754;28;20404;-76
2022/05/21 05:43:38;;;;;;;18.60;13.20;;;13.70;99.90;;;;;;5019493;28;20101;-76
2022/05/21 05:46:03;;;;;;;20.98;14.73;;;13.80;99.90;;;;;;5002590;28;20489;-75
2022/05/21 05:48:30;;;;;;;21.55;14.13;;;13.90;99.90;;;;;;5020736;28;20030;-75
2022/05/21 05:50:57;;;;;;;20.85;14.85;;;13.90;99.90;;;;;;5018453;28;20029;-75
2022/05/21 05:53:24;;;;;;;21.30;15.10;;;13.80;99.90;;;;;;5003219;28;20456;-75
2022/05/21 05:55:50;;;;;;;21.92;14.85;;;13.90;99.90;;;;;;5002369;28;20033;-74
2022/05/21 06:00:59;;;;;;;18.77;15.02;;;13.90;99.90;;;;;;5019377;28;20068;-74
2022/05/21 06:03:25;;;;;;;22.50;17.13;;;13.90;99.90;;;;;;5019230;28;20049;-75
2022/05/21 06:05:51;;;;;;;20.10;15.18;;;13.90;99.90;;;;;;5013411;28;20072;-74
2022/05/21 06:08:18;;;;;;;19.05;15.20;;;13.80;99.90;;;;;;5015555;28;20026;-76
2022/05/21 06:10:45;;;;;;;20.92;14.88;;;13.80;99.90;;;;;;5007465;28;21756;-74
2022/05/21 06:13:14;;;;;;;20.63;14.70;;;13.70;99.90;;;;;;5007814;28;20516;-75
2022/05/21 06:15:41;;;;;;;21.13;14.80;;;13.70;99.90;;;;;;5006883;28;20486;-75
2022/05/21 06:18:09;;;;;;;21.98;16.98;;;13.70;99.90;;;;;;5008074;28;20038;-75
2022/05/21 06:20:36;;;;;;;18.77;15.63;;;13.70;99.90;;;;;;5015824;28;20033;-75
2022/05/21 06:23:02;;;;;;;20.90;14.57;;;13.70;99.90;;;;;;5014663;28;20155;-75
2022/05/21 06:25:30;;;;;;;18.73;14.18;;;13.80;99.90;;;;;;5011658;28;20033;-74
2022/05/21 06:27:55;;;;;;;19.15;15.52;;;13.80;99.90;;;;;;5015253;28;20433;-75
2022/05/21 06:30:24;;;;;;;21.42;15.73;;;13.80;99.90;;;;;;5030324;28;20040;-74
2022/05/21 06:32:50;;;;;;;21.58;15.73;;;13.90;99.90;;;;;;4998638;28;20567;-73
2022/05/21 06:35:17;;;;;;;21.33;16.30;;;14.00;99.90;;;;;;5015490;28;20033;-75
2022/05/21 06:37:44;;;;;;;24.52;18.00;;;14.20;99.90;;;;;;5013341;28;20030;-75
2022/05/21 06:40:11;;;;;;;20.75;15.88;;;14.30;99.90;;;;;;5016075;28;20029;-75
2022/05/21 06:42:37;;;;;;;22.67;16.95;;;14.40;99.90;;;;;;5013229;28;20560;-74
2022/05/21 06:45:04;;;;;;;20.00;16.60;;;14.50;99.90;;;;;;5008875;28;20579;-76
2022/05/21 06:47:31;;;;;;;25.08;17.02;;;14.70;99.90;;;;;;5009512;28;20025;-78
2022/05/21 06:49:58;;;;;;;18.98;15.82;;;14.80;99.90;;;;;;4991383;28;20899;-75
2022/05/21 06:52:25;;;;;;;20.58;15.13;;;14.80;99.90;;;;;;5014713;28;20038;-76
2022/05/21 06:54:51;;;;;;;23.25;17.20;;;14.80;99.90;;;;;;4996029;28;20025;-75
2022/05/21 06:57:18;;;;;;;22.67;16.25;;;14.90;99.90;;;;;;5012757;28;20124;-75
2022/05/21 06:59:44;;;;;;;21.08;15.70;;;15.00;99.90;;;;;;5006792;28;20037;-75
2022/05/21 07:02:10;;;;;;;22.55;15.57;;;15.00;99.90;;;;;;5012588;28;20030;-74
2022/05/21 07:07:32;;;;;;;22.15;15.90;;;15.20;99.90;;;;;;5014616;28;20029;-75
2022/05/21 07:10:00;;;;;;;23.77;16.05;;;15.10;99.90;;;;;;5005501;28;20110;-76
2022/05/21 07:12:26;;;;;;;24.65;15.90;;;15.10;99.90;;;;;;5010055;28;20037;-75
2022/05/21 07:14:52;;;;;;;22.17;16.45;;;15.20;99.90;;;;;;5008543;28;20084;-75
2022/05/21 07:17:18;;;;;;;17.83;14.88;;;15.20;99.90;;;;;;5005468;28;21104;-77
2022/05/21 07:19:43;;;;;;;28.88;15.90;;;15.30;99.90;;;;;;5004531;23;20420;-76
2022/05/21 07:22:10;;;;;;;20.35;14.48;;;15.40;99.90;;;;;;5021699;28;20038;-76
2022/05/21 07:24:40;;;;;;;21.08;15.80;;;15.50;99.90;;;;;;5020539;28;20047;-76
2022/05/21 07:27:05;;;;;;;20.83;14.32;;;15.70;99.90;;;;;;5023885;28;20037;-75
2022/05/21 07:29:31;;;;;;;22.10;15.45;;;15.80;99.90;;;;;;5021901;28;20078;-75
2022/05/21 07:31:57;;;;;;;21.58;15.10;;;15.80;99.90;;;;;;5031201;28;20037;-75
2022/05/21 07:34:22;;;;;;;22.67;13.82;;;16.00;99.90;;;;;;5020018;28;20022;-77
2022/05/21 07:36:48;;;;;;;23.20;16.33;;;16.10;99.90;;;;;;5018572;28;20382;-75
2022/05/21 07:39:14;;;;;;;19.45;13.45;;;16.10;99.90;;;;;;5017929;28;20102;-77
2022/05/21 07:41:40;;;;;;;19.05;12.55;;;16.00;99.90;;;;;;5002721;28;20026;-75
2022/05/21 07:44:05;;;;;;;20.23;12.88;;;16.10;99.90;;;;;;5017055;28;20267;-76
2022/05/21 07:46:31;;;;;;;15.20;11.88;;;16.10;99.90;;;;;;5024276;28;20441;-76
2022/05/21 07:48:56;;;;;;;21.25;12.52;;;16.20;99.90;;;;;;5018491;28;20032;-76
2022/05/21 07:51:22;;;;;;;20.67;12.40;;;16.30;99.90;;;;;;5021308;28;20029;-75
2022/05/21 07:53:48;;;;;;;19.65;11.27;;;16.30;99.90;;;;;;5004658;28;20056;-76
2022/05/21 07:56:13;;;;;;;16.95;10.38;;;16.30;99.90;;;;;;5016696;28;20022;-76
2022/05/21 07:58:40;;;;;;;17.88;12.13;;;16.40;99.90;;;;;;5022861;28;20026;-76
2022/05/21 08:01:05;;;;;;;16.75;10.63;;;16.20;99.90;;;;;;5021151;28;20128;-76
2022/05/21 08:03:31;;;;;;;15.57;8.90;;;16.20;99.90;;;;;;5031424;28;20032;-78
2022/05/21 08:05:57;;;;;;;19.75;9.63;;;16.20;99.90;;;;;;5048744;28;20036;-78
2022/05/21 08:08:24;;;;;;;16.67;9.32;;;16.10;99.90;;;;;;5034898;28;20025;-77
2022/05/21 08:10:50;;;;;;;14.93;8.80;;;16.00;99.90;;;;;;5034377;28;20032;-79
2022/05/21 08:13:16;;;;;;;14.30;8.70;;;15.90;99.90;;;;;;5030240;28;20034;-78
2022/05/21 08:15:43;;;;;;;13.05;9.13;;;15.70;99.90;;;;;;5026514;28;20046;-77
2022/05/21 08:18:08;;;;;;;12.73;8.13;;;15.60;99.90;;;;;;5024283;28;20033;-79
2022/05/21 08:20:36;;;;;;;13.75;8.38;;;15.50;99.90;;;;;;5033801;28;20032;-79
2022/05/21 08:28:32;;;;;;;16.65;7.63;;;15.10;99.90;;;;;;5033543;28;20026;-78
2022/05/21 08:30:58;;;;;;;13.02;7.72;;;15.10;99.90;;;;;;5031941;28;20026;-78
2022/05/21 08:33:24;;;;;;;11.15;6.60;;;15.20;99.90;;;;;;4993281;28;20022;-78
2022/05/21 08:35:50;;;;;;;10.13;5.80;;;15.20;99.90;;;;;;5026522;28;20032;-78
2022/05/21 08:38:16;;;;;;;8.52;5.20;;;15.20;99.90;;;;;;5009078;28;20108;-78
2022/05/21 08:40:44;;;;;;;11.68;4.90;;;15.50;99.90;;;;;;5024212;28;20052;-77
2022/05/21 08:43:44;;;;;;;9.95;4.70;;;15.60;99.90;;;;;;5005860;28;20017;-77
2022/05/21 08:46:25;;;;;;;10.32;4.75;;;15.80;99.90;;;;;;5006909;28;20037;-78
2022/05/21 08:48:56;;;;;;;5.80;2.50;;;15.90;99.90;;;;;;4998259;28;20108;-78
2022/05/21 08:51:26;;;;;;;9.98;3.40;;;16.00;99.90;;;;;;5009831;28;20486;-78
2022/05/21 08:53:52;;;;;;;7.72;3.15;;;16.00;99.90;;;;;;5011687;28;20116;-78
2022/05/21 08:56:20;;;;;;;6.43;2.67;;;15.70;99.90;;;;;;5008402;28;20034;-78
2022/05/21 08:59:11;;;;;;;6.80;2.45;;;15.50;99.90;;;;;;5008599;28;20489;-78
2022/05/21 09:01:40;;;;;;;4.50;2.55;;;15.40;99.90;;;;;;4988922;28;20038;-77
2022/05/21 09:04:08;;;;;;;6.45;2.50;;;15.10;99.90;;;;;;5006934;28;20042;-78
2022/05/21 09:07:04;;;;;;;7.03;2.15;;;15.20;99.90;;;;;;5006441;28;20505;-78
2022/05/21 09:09:56;;;;;;;6.00;2.10;;;15.20;99.90;;;;;;5006592;28;20461;-78
2022/05/21 09:12:27;;;;;;;5.65;2.13;;;15.30;99.90;;;;;;5007342;28;20029;-78
2022/05/21 09:14:56;;;;;;;4.50;2.28;;;15.20;99.90;;;;;;5007620;28;20018;-77
2022/05/21 09:17:26;;;;;;;4.80;2.28;;;15.20;99.90;;;;;;5026046;28;20104;-77
2022/05/21 09:20:02;;;;;;;5.93;2.28;;;15.10;99.90;;;;;;5018375;28;20087;-77
2022/05/21 09:22:27;;;;;;;7.50;2.38;;;15.10;99.90;;;;;;5026045;28;20455;-78
2022/05/21 09:24:58;;;;;;;7.85;2.05;;;14.90;99.90;;;;;;5026208;28;20052;-78
2022/05/21 09:27:42;;;;;;;6.63;1.90;;;15.00;99.90;;;;;;5004838;28;20472;-78
2022/05/21 09:30:25;;;;;;;9.25;2.22;;;15.10;99.90;;;;;;5025887;28;20145;-77
2022/05/21 09:32:55;;;;;;;8.45;2.55;;;15.30;99.90;;;;;;5008394;28;20025;-78
2022/05/21 09:35:29;;;;;;;8.60;2.65;;;15.50;99.90;;;;;;5022857;28;20049;-77
2022/05/21 09:37:56;;;;;;;5.90;1.98;;;15.70;99.90;;;;;;5007238;28;20057;-77
2022/05/21 09:40:22;;;;;;;7.03;2.30;;;16.00;99.90;;;;;;5022233;28;20041;-78
2022/05/21 09:45:34;;;;;;;7.85;1.73;;;16.20;99.90;;;;;;5021020;28;20026;-78
2022/05/21 09:48:03;;;;;;;3.42;1.15;;;16.20;99.90;;;;;;5025964;28;20025;-78
2022/05/21 09:50:30;;;;;;;6.32;1.80;;;16.20;99.90;;;;;;5023518;28;20049;-78
2022/05/21 09:52:56;;;;;;;5.28;1.40;;;16.30;99.90;;;;;;5022077;28;20104;-78
2022/05/21 09:55:29;;;;;;;8.75;1.80;;;16.20;99.90;;;;;;5023105;28;20022;-78
2022/05/21 09:58:08;;;;;;;6.13;1.40;;;16.30;99.90;;;;;;5032220;28;20040;-78
2022/05/21 10:00:36;;;;;;;5.03;1.60;;;16.40;99.90;;;;;;5031872;28;20027;-78
2022/05/21 10:03:05;;;;;;;7.38;2.05;;;16.50;99.90;;;;;;5033322;28;20025;-78
2022/05/21 10:05:36;;;;;;;5.82;1.77;;;16.50;99.90;;;;;;5034066;28;20029;-78
2022/05/21 10:10:59;;;;;;;6.85;2.20;;;16.40;99.90;;;;;;5023161;28;20064;-78
2022/05/21 10:13:35;;;;;;;6.80;1.70;;;16.40;99.90;;;;;;5021942;28;20053;-78
2022/05/21 10:16:28;;;;;;;5.65;1.52;;;16.50;99.90;;;;;;5023572;28;20046;-78
2022/05/21 10:19:23;;;;;;;9.77;1.77;;;16.60;99.90;;;;;;5007272;28;20022;-78
2022/05/21 10:22:03;;;;;;;13.88;1.77;;;16.70;99.90;;;;;;5023422;28;20033;-78
2022/05/21 10:24:59;;;;;;;8.23;1.70;;;16.90;99.90;;;;;;5008653;28;20081;-77
2022/05/21 10:27:44;;;;;;;7.10;1.67;;;16.80;99.90;;;;;;5031457;28;20038;-78
2022/05/21 10:30:33;;;;;;;8.57;1.55;;;16.80;99.90;;;;;;5029194;28;20040;-78
2022/05/21 10:33:20;;;;;;;5.57;1.65;;;16.90;99.90;;;;;;5005413;28;20037;-78
2022/05/21 10:36:07;;;;;;;7.38;1.77;;;16.90;99.90;;;;;;5024465;28;20033;-78
2022/05/21 10:38:39;;;;;;;8.50;1.50;;;17.00;99.90;;;;;;5024999;28;20025;-78
2022/05/21 10:41:13;;;;;;;8.63;1.90;;;17.20;99.90;;;;;;5021669;28;20021;-78
2022/05/21 10:44:11;;;;;;;9.10;2.20;;;17.50;99.90;;;;;;5021891;28;20026;-78
2022/05/21 10:46:46;;;;;;;6.28;1.58;;;17.60;99.90;;;;;;5023958;28;20028;-78
2022/05/21 10:49:30;;;;;;;7.57;1.95;;;17.60;99.90;;;;;;5021374;28;20080;-79
2022/05/21 10:52:17;;;;;;;4.63;1.60;;;17.60;99.90;;;;;;5007992;28;20033;-78
2022/05/21 10:55:09;;;;;;;5.53;1.88;;;17.60;99.90;;;;;;5023887;28;20057;-78
2022/05/21 10:57:58;;;;;;;9.13;1.95;;;17.30;99.90;;;;;;5000014;28;20133;-78
2022/05/21 11:00:31;;;;;;;7.15;2.00;;;17.10;99.90;;;;;;5022833;28;20061;-78
2022/05/21 11:03:03;;;;;;;6.15;1.63;;;17.10;99.90;;;;;;5022160;28;20018;-78
2022/05/21 11:05:51;;;;;;;6.88;2.10;;;17.20;99.90;;;;;;5005463;28;20026;-77
2022/05/21 11:08:28;;;;;;;6.22;1.35;;;17.50;99.90;;;;;;5023383;28;20022;-78
2022/05/21 11:11:14;;;;;;;7.28;1.83;;;17.80;99.90;;;;;;5020625;28;20037;-78
2022/05/21 11:14:21;;;;;;;5.15;1.48;;;18.20;99.90;;;;;;5022194;28;20033;-77
2022/05/21 11:16:55;;;;;;;4.05;1.20;;;19.60;99.90;;;;;;5023239;28;20289;-78
2022/05/21 11:19:43;;;;;;;5.13;1.30;;;21.40;99.90;;;;;;5019995;28;20026;-77
2022/05/21 11:22:17;;;;;;;8.73;1.30;;;23.30;95.90;;;;;;4994836;28;20022;-79
2022/05/21 11:24:51;;;;;;;6.00;1.40;;;24.30;84.20;;;;;;4994858;28;20033;-79
2022/05/21 11:27:34;;;;;;;4.82;1.00;;;23.90;77.40;;;;;;5013198;28;20332;-79
2022/05/21 11:30:11;;;;;;;6.93;1.58;;;24.00;80.90;;;;;;4978247;28;20037;-79
2022/05/21 11:38:28;;;;;;;3.17;1.23;;;27.30;59.20;;;;;;5015327;28;20084;-78
2022/05/21 11:41:25;;;;;;;4.60;1.10;;;28.20;56.40;;;;;;4997613;28;20040;-79
2022/05/21 11:47:12;;;;;;;4.60;1.30;;;30.50;50.90;;;;;;5002168;28;20069;-78
2022/05/21 11:50:07;;;;;;;3.30;1.40;;;29.50;49.60;;;;;;4986901;28;20049;-80
2022/05/21 11:52:35;;;;;;;60.53;41.85;;;28.20;51.70;;;;;;5013318;28;20045;-77
2022/05/21 11:55:11;;;;;;;64.10;49.88;;;26.90;53.20;;;;;;4996586;28;20038;-77
2022/05/21 11:57:41;;;;;;;20.85;16.00;;;26.40;54.40;;;;;;5014151;28;20424;-77
2022/05/21 12:00:24;;;;;;;95.25;74.07;;;25.50;55.60;;;;;;4996743;28;20029;-77
2022/05/21 12:02:58;;;;;;;8.10;4.80;;;25.10;56.60;;;;;;5015096;28;20401;-78
2022/05/21 12:05:33;;;;;;;4.43;1.30;;;25.00;57.90;;;;;;5012737;28;20040;-77
2022/05/21 12:08:17;;;;;;;3.78;1.63;;;25.50;57.80;;;;;;4995528;28;20034;-78
2022/05/21 12:11:08;;;;;;;6.72;1.40;;;25.80;57.30;;;;;;4996105;28;20045;-77
2022/05/21 12:13:34;;;;;;;4.03;1.38;;;25.10;55.70;;;;;;4997209;28;20026;-77
2022/05/21 12:16:20;;;;;;;4.03;1.35;;;24.30;58.50;;;;;;5015876;28;20439;-78
2022/05/21 12:19:03;;;;;;;7.13;1.70;;;23.50;59.10;;;;;;5015071;28;20033;-78
2022/05/21 12:21:40;;;;;;;6.32;1.55;;;23.10;61.70;;;;;;5025837;28;20579;-79
2022/05/21 12:24:06;;;;;;;5.82;1.30;;;23.80;61.30;;;;;;5029111;28;20034;-79
2022/05/21 12:26:41;;;;;;;4.13;1.13;;;25.10;59.60;;;;;;5027175;28;20574;-79
2022/05/21 12:29:18;;;;;;;5.80;1.40;;;26.20;57.40;;;;;;5027276;28;20088;-78
2022/05/21 12:31:44;;;;;;;6.57;1.90;;;27.10;52.70;;;;;;5027417;28;20034;-77
2022/05/21 12:34:42;;;;;;;3.80;1.45;;;27.40;51.90;;;;;;5027192;28;20578;-77
2022/05/21 12:37:22;;;;;;;3.38;1.60;;;28.00;52.00;;;;;;5004272;28;20026;-78
2022/05/21 12:40:06;;;;;;;3.20;1.15;;;27.50;49.40;;;;;;5009225;28;20026;-78
2022/05/21 12:42:39;;;;;;;4.47;1.48;;;27.50;51.70;;;;;;5005977;28;20044;-79
2022/05/21 12:45:06;;;;;;;6.78;1.73;;;28.10;50.00;;;;;;5027278;28;20025;-77
2022/05/21 12:47:38;;;;;;;5.93;1.40;;;27.40;50.20;;;;;;4991050;28;20389;-78
2022/05/21 12:50:19;;;;;;;7.50;1.30;;;26.20;51.80;;;;;;4988776;28;20030;-77
2022/05/21 12:52:54;;;;;;;5.28;1.40;;;25.20;51.50;;;;;;5023073;28;20037;-78
2022/05/21 12:55:31;;;;;;;4.85;1.25;;;23.90;54.20;;;;;;5017602;28;20030;-78
2022/05/21 12:58:14;;;;;;;6.75;1.40;;;23.40;57.10;;;;;;5029804;28;20013;-79
2022/05/21 13:00:48;;;;;;;6.32;1.80;;;24.30;56.20;;;;;;5028885;28;20044;-79
2022/05/21 13:03:15;;;;;;;6.30;1.40;;;25.00;53.30;;;;;;5008168;28;20017;-79
2022/05/21 13:06:03;;;;;;;4.60;1.17;;;24.60;53.80;;;;;;5025507;28;20199;-79
2022/05/21 13:08:31;;;;;;;4.28;1.42;;;23.60;55.30;;;;;;5008218;28;20030;-79
2022/05/21 13:11:18;;;;;;;5.50;1.25;;;22.70;58.30;;;;;;5024862;28;20026;-78
2022/05/21 13:13:57;;;;;;;6.03;1.35;;;23.70;58.20;;;;;;5025767;28;20534;-79
2022/05/21 13:16:23;;;;;;;3.20;1.00;;;25.10;55.00;;;;;;5009232;28;20355;-79
2022/05/21 13:19:28;;;;;;;5.97;1.63;;;26.20;52.10;;;;;;5026745;28;20039;-78
2022/05/21 13:22:04;;;;;;;4.05;1.42;;;25.30;53.20;;;;;;4991255;28;20036;-78
2022/05/21 13:24:53;;;;;;;5.03;1.27;;;24.70;54.80;;;;;;5025468;28;20080;-78
2022/05/21 13:27:21;;;;;;;4.72;1.33;;;24.30;55.30;;;;;;4991955;28;20018;-78
2022/05/21 13:29:49;;;;;;;5.43;1.38;;;24.90;52.40;;;;;;4988196;28;20032;-78
2022/05/21 13:32:27;;;;;;;4.20;1.23;;;24.30;55.70;;;;;;5005122;28;20404;-78
2022/05/21 13:34:59;;;;;;;8.27;1.75;;;23.60;55.30;;;;;;5005285;28;20029;-78
2022/05/21 13:37:54;;;;;;;6.68;1.42;;;22.80;57.50;;;;;;5022384;28;20080;-77